Time;durP1;ratioP1;P1;durP2;ratioP2;P2;SDS_P1;SDS_P2;PMS_P1;PMS_P2;Temp;Humidity;BMP_temperature;BMP_pressure;BME280_temperature;BME280_humidity;BME280_pressure;Samples;Min_cycle;Max_cycle;Signal;HPM_P1;HPM_P2
2023/06/13 00:02:44;;;;;;;3.03;2.60;;;;;;;20.70;38.89;100059.44;10230618;28;20122;-60
2023/06/13 00:07:45;;;;;;;4.35;2.50;;;;;;;20.53;38.94;100064.03;10231939;28;20054;-60
2023/06/13 00:12:49;;;;;;;5.60;2.72;;;;;;;20.42;39.54;100060.34;10212243;28;20053;-61
2023/06/13 00:17:50;;;;;;;3.25;2.40;;;;;;;20.33;39.99;100061.81;10227849;28;20558;-62
2023/06/13 00:22:52;;;;;;;3.50;2.55;;;;;;;20.21;40.41;100059.16;10212778;28;20043;-61
2023/06/13 00:27:53;;;;;;;3.65;2.15;;;;;;;20.12;40.78;100058.75;10196820;28;20051;-60
2023/06/13 00:32:55;;;;;;;6.60;2.58;;;;;;;20.03;40.99;100065.69;10224270;28;20069;-60
2023/06/13 00:37:56;;;;;;;3.70;2.70;;;;;;;19.87;41.29;100056.38;10185836;29;20048;-62
2023/06/13 00:42:58;;;;;;;2.97;2.22;;;;;;;19.68;41.71;100063.06;10224620;28;20150;-61
2023/06/13 00:48:03;;;;;;;7.90;2.58;;;;;;;19.47;41.92;100059.97;10202852;28;20051;-61
2023/06/13 00:53:11;;;;;;;4.45;2.63;;;;;;;19.34;42.22;100060.22;10205120;28;20402;-60
2023/06/13 00:58:13;;;;;;;2.95;2.28;;;;;;;19.22;42.03;100061.06;10216413;28;20051;-61
2023/06/13 01:03:15;;;;;;;6.97;2.40;;;;;;;19.13;42.15;100062.50;10189538;28;20059;-60
2023/06/13 01:08:22;;;;;;;5.60;2.75;;;;;;;19.13;42.52;100062.50;10226725;28;20405;-60
2023/06/13 01:13:39;;;;;;;4.07;2.03;;;;;;;19.15;42.36;100065.81;10192403;29;20047;-63
2023/06/13 01:18:43;;;;;;;6.18;1.88;;;;;;;19.10;42.22;100062.19;10184433;28;20107;-61
2023/06/13 01:23:52;;;;;;;3.10;2.28;;;;;;;19.04;42.55;100063.97;10186877;29;20070;-60
2023/06/13 01:28:55;;;;;;;5.80;2.85;;;;;;;18.97;43.24;100058.63;10222989;28;20051;-63
2023/06/13 01:33:58;;;;;;;7.05;2.78;;;;;;;18.85;43.40;100060.53;10224304;28;20047;-61
2023/06/13 01:38:59;;;;;;;3.08;2.20;;;;;;;18.79;43.10;100058.72;10226740;28;20054;-61
2023/06/13 01:44:03;;;;;;;4.53;2.88;;;;;;;18.70;43.15;100058.28;10208671;28;20058;-61
2023/06/13 01:49:16;;;;;;;6.22;2.58;;;;;;;18.58;43.47;100060.13;10225062;28;20051;-61
2023/06/13 01:54:21;;;;;;;3.38;2.35;;;;;;;18.55;43.51;100061.44;10223956;28;20048;-61
2023/06/13 01:59:25;;;;;;;5.32;2.58;;;;;;;18.42;43.91;100057.06;10222980;28;20047;-61
2023/06/13 02:04:28;;;;;;;3.22;2.10;;;;;;;18.37;43.99;100053.41;10215217;28;20049;-62
2023/06/13 02:09:29;;;;;;;3.80;2.08;;;;;;;18.30;43.93;100056.19;10227808;28;20383;-61
2023/06/13 02:14:32;;;;;;;4.15;2.50;;;;;;;18.25;43.92;100050.66;10225091;28;20415;-63
2023/06/13 02:19:34;;;;;;;2.88;2.28;;;;;;;18.27;44.15;100051.25;10226543;28;20138;-63
2023/06/13 02:24:36;;;;;;;3.90;2.30;;;;;;;18.23;43.94;100053.59;10222059;28;20054;-62
2023/06/13 02:29:38;;;;;;;4.65;2.50;;;;;;;18.15;44.18;100053.13;10220014;28;20114;-60
2023/06/13 02:34:40;;;;;;;3.60;2.47;;;;;;;18.07;44.16;100053.44;10223209;28;20047;-62
2023/06/13 02:39:41;;;;;;;3.75;1.95;;;;;;;18.06;44.24;100043.63;10222381;28;20043;-62
2023/06/13 02:44:42;;;;;;;4.38;2.45;;;;;;;18.06;43.78;100046.34;10223999;28;20047;-61
2023/06/13 02:49:44;;;;;;;4.90;2.45;;;;;;;17.98;43.98;100053.78;10225272;28;20079;-62
2023/06/13 02:54:45;;;;;;;5.35;2.95;;;;;;;17.99;44.14;100057.31;10218081;28;20987;-62
2023/06/13 02:59:47;;;;;;;9.65;2.35;;;;;;;17.96;44.36;100049.63;10226375;28;20498;-61
2023/06/13 03:04:49;;;;;;;3.22;2.28;;;;;;;17.97;44.30;100046.69;10225938;28;20486;-61
2023/06/13 03:09:50;;;;;;;6.03;2.63;;;;;;;17.97;44.32;100043.97;10206919;28;20043;-61
2023/06/13 03:14:52;;;;;;;6.20;2.60;;;;;;;17.98;44.63;100055.66;10227587;28;20157;-63
2023/06/13 03:19:53;;;;;;;3.67;2.15;;;;;;;18.02;44.74;100052.25;10224122;28;20305;-63
2023/06/13 03:25:04;;;;;;;3.00;1.73;;;;;;;18.03;44.40;100053.91;10223769;28;20052;-63
2023/06/13 03:30:07;;;;;;;4.63;3.42;;;;;;;18.03;44.46;100047.66;10224842;28;20510;-64
2023/06/13 03:35:09;;;;;;;5.20;2.65;;;;;;;18.01;44.46;100058.75;10225351;28;20047;-61
2023/06/13 03:40:11;;;;;;;4.25;2.40;;;;;;;17.88;44.36;100050.78;10225404;28;20066;-61
2023/06/13 03:45:15;;;;;;;6.57;2.40;;;;;;;17.89;44.49;100052.47;10227067;28;20047;-62
2023/06/13 03:50:17;;;;;;;4.55;2.45;;;;;;;17.89;44.44;100052.47;10225754;28;20049;-62
2023/06/13 03:55:18;;;;;;;3.35;1.98;;;;;;;17.86;44.71;100052.09;10216077;28;20052;-63
2023/06/13 04:00:20;;;;;;;10.23;2.38;;;;;;;17.94;44.87;100052.56;10208197;28;20048;-62
2023/06/13 04:05:23;;;;;;;6.00;2.50;;;;;;;17.97;44.83;100040.41;10222805;28;20502;-62
2023/06/13 04:10:24;;;;;;;5.75;2.65;;;;;;;18.03;44.63;100034.88;10224604;28;20106;-65
2023/06/13 04:15:26;;;;;;;8.82;2.78;;;;;;;18.10;44.41;100042.91;10229340;28;20124;-62
2023/06/13 04:20:28;;;;;;;4.60;1.85;;;;;;;18.20;44.57;100042.34;10224586;28;20044;-62
2023/06/13 04:25:30;;;;;;;5.55;2.40;;;;;;;18.29;44.16;100049.13;10226350;28;20039;-62
2023/06/13 04:30:32;;;;;;;3.70;2.05;;;;;;;18.33;44.03;100058.47;10231384;28;20054;-63
2023/06/13 04:35:37;;;;;;;4.50;2.85;;;;;;;18.47;43.86;100059.06;10228759;28;20513;-62
2023/06/13 04:40:39;;;;;;;1.95;1.70;;;;;;;18.58;43.64;100068.31;10229461;28;20059;-61
2023/06/13 04:45:43;;;;;;;4.57;2.03;;;;;;;18.72;43.49;100077.06;10227935;28;20111;-62
2023/06/13 04:50:45;;;;;;;3.00;2.17;;;;;;;18.85;43.56;100076.06;10227986;28;20070;-62
2023/06/13 04:55:47;;;;;;;3.80;2.38;;;;;;;18.98;43.20;100084.81;10231699;28;20070;-61
2023/06/13 05:00:50;;;;;;;5.90;1.80;;;;;;;19.15;42.98;100084.06;10230804;28;20403;-62
2023/06/13 05:05:52;;;;;;;7.18;2.30;;;;;;;19.32;42.84;100093.16;10231818;28;20115;-66
2023/06/13 05:10:53;;;;;;;5.72;1.90;;;;;;;19.45;42.76;100092.09;10231220;28;20101;-68
2023/06/13 05:15:55;;;;;;;2.75;1.55;;;;;;;19.60;42.70;100094.28;10225597;28;20070;-66
2023/06/13 05:20:57;;;;;;;4.07;2.00;;;;;;;19.74;42.90;100103.88;10221362;28;20051;-66
2023/06/13 05:25:58;;;;;;;3.72;1.50;;;;;;;19.92;42.81;100099.28;10223973;28;20043;-68
2023/06/13 05:31:01;;;;;;;3.55;2.47;;;;;;;20.01;42.69;100104.13;10220899;28;20442;-68
2023/06/13 05:36:02;;;;;;;6.20;1.75;;;;;;;20.08;42.49;100103.94;10219243;28;20046;-68
2023/06/13 05:41:04;;;;;;;3.20;1.73;;;;;;;20.21;42.35;100105.56;10224474;28;20403;-67
2023/06/13 05:46:05;;;;;;;2.17;1.55;;;;;;;20.26;42.49;100116.59;10222364;28;20043;-66
2023/06/13 05:51:07;;;;;;;2.83;1.30;;;;;;;20.34;41.98;100108.00;10227263;28;20137;-67
2023/06/13 05:56:09;;;;;;;3.20;1.88;;;;;;;20.50;41.60;100120.00;10226018;28;20046;-68
2023/06/13 06:01:10;;;;;;;3.85;1.90;;;;;;;20.62;41.43;100111.75;10221642;28;20051;-69
2023/06/13 06:06:12;;;;;;;2.33;1.83;;;;;;;20.77;40.92;100103.81;10226268;28;20059;-69
2023/06/13 06:11:13;;;;;;;4.75;1.73;;;;;;;20.88;41.06;100112.97;10219761;28;20066;-68
2023/06/13 06:16:14;;;;;;;3.60;1.95;;;;;;;21.02;40.47;100121.66;10217897;28;20059;-67
2023/06/13 06:21:16;;;;;;;4.47;1.83;;;;;;;21.15;40.43;100121.31;10220987;28;20071;-67
2023/06/13 06:26:17;;;;;;;5.13;1.65;;;;;;;21.30;39.93;100115.22;10217763;28;20051;-67
2023/06/13 06:31:19;;;;;;;3.08;1.63;;;;;;;21.42;39.99;100126.03;10226210;28;20044;-66
2023/06/13 06:36:22;;;;;;;3.72;2.08;;;;;;;21.56;39.07;100121.88;10227325;28;20110;-70
2023/06/13 06:41:24;;;;;;;4.38;1.65;;;;;;;21.74;38.80;100123.47;10247957;28;20383;-65
2023/06/13 06:46:25;;;;;;;4.07;1.60;;;;;;;21.93;38.85;100126.69;10237117;28;20058;-65
2023/06/13 06:51:27;;;;;;;1.88;1.45;;;;;;;22.16;38.38;100119.25;10234401;28;20703;-65
2023/06/13 06:56:29;;;;;;;3.45;1.42;;;;;;;22.36;38.10;100113.19;10229832;28;20039;-65
2023/06/13 07:01:30;;;;;;;5.38;1.30;;;;;;;22.50;38.38;100116.31;10224036;28;20055;-65
2023/06/13 07:06:32;;;;;;;3.00;1.40;;;;;;;22.65;37.93;100121.06;10224509;28;20119;-65
2023/06/13 07:11:33;;;;;;;2.92;1.42;;;;;;;22.81;38.03;100124.75;10219192;28;20059;-64
2023/06/13 07:16:35;;;;;;;2.15;1.55;;;;;;;22.94;37.61;100114.16;10209690;28;20039;-64
2023/06/13 07:21:38;;;;;;;2.80;1.30;;;;;;;23.07;37.28;100115.66;10215667;28;20206;-64
2023/06/13 07:26:39;;;;;;;4.35;1.95;;;;;;;23.16;37.12;100119.56;10201568;28;20490;-62
2023/06/13 07:31:40;;;;;;;3.05;2.03;;;;;;;23.24;37.09;100120.97;10222593;28;20458;-63
2023/06/13 07:36:43;;;;;;;2.13;1.38;;;;;;;23.31;37.13;100118.00;10216300;28;20047;-64
2023/06/13 07:41:46;;;;;;;2.85;1.83;;;;;;;23.46;37.16;100107.09;10224804;28;20045;-64
2023/06/13 07:46:48;;;;;;;3.33;1.45;;;;;;;23.69;36.99;100114.03;10220946;28;20067;-64
2023/06/13 07:51:50;;;;;;;2.28;1.30;;;;;;;23.82;36.51;100101.78;10221346;28;20051;-63
2023/06/13 07:56:52;;;;;;;5.97;1.38;;;;;;;23.86;36.10;100097.38;10224573;28;20048;-64
2023/06/13 08:01:53;;;;;;;4.80;1.50;;;;;;;23.86;36.11;100091.09;10226099;28;20055;-64
2023/06/13 08:06:55;;;;;;;3.85;1.70;;;;;;;24.15;35.35;100089.50;10230469;28;20406;-64
2023/06/13 08:11:59;;;;;;;14.07;3.40;;;;;;;24.28;34.77;100079.06;10217852;28;20059;-64
2023/06/13 08:17:00;;;;;;;6.43;1.50;;;;;;;24.54;33.32;100082.66;10227861;28;20053;-64
2023/06/13 08:22:02;;;;;;;3.03;1.30;;;;;;;24.79;32.48;100065.31;10211935;28;20526;-64
2023/06/13 08:27:04;;;;;;;3.80;1.50;;;;;;;24.99;31.65;100064.44;10209391;28;20707;-63
2023/06/13 08:32:06;;;;;;;2.53;1.13;;;;;;;25.18;31.32;100058.31;10227506;28;20431;-64
2023/06/13 08:37:07;;;;;;;2.00;1.10;;;;;;;25.37;30.73;100067.63;10212425;28;20051;-63
2023/06/13 08:42:10;;;;;;;6.65;1.77;;;;;;;25.51;30.77;100067.84;10225738;28;20047;-63
2023/06/13 08:47:12;;;;;;;3.80;1.35;;;;;;;25.70;30.91;100065.28;10223368;28;20499;-64
2023/06/13 08:52:41;;;;;;;4.13;1.40;;;;;;;25.89;29.83;100049.75;10223717;28;20082;-63
2023/06/13 08:57:45;;;;;;;2.42;1.30;;;;;;;25.95;29.40;100035.97;10228002;28;20122;-63
2023/06/13 09:02:47;;;;;;;2.85;1.30;;;;;;;26.00;29.60;100047.78;10229307;28;20438;-63
2023/06/13 09:07:50;;;;;;;1.92;1.17;;;;;;;26.11;29.13;100049.34;10226421;28;20106;-63
2023/06/13 09:12:52;;;;;;;3.80;1.27;;;;;;;26.30;28.50;100052.25;10226074;28;20058;-63
2023/06/13 09:17:54;;;;;;;3.35;1.55;;;;;;;26.48;28.00;100041.59;10224744;28;20047;-63
2023/06/13 09:22:56;;;;;;;3.38;0.95;;;;;;;26.69;27.65;100043.06;10226405;28;20059;-63
2023/06/13 09:27:58;;;;;;;2.63;1.20;;;;;;;26.83;27.14;100039.63;10225749;28;20051;-63
2023/06/13 09:33:02;;;;;;;2.10;1.63;;;;;;;26.91;26.62;100028.75;10221717;28;20051;-64
2023/06/13 09:38:04;;;;;;;4.38;1.90;;;;;;;27.06;26.22;100025.03;10222832;28;20048;-64
2023/06/13 09:43:06;;;;;;;5.22;0.93;;;;;;;27.18;26.09;100016.31;10224406;28;20402;-61
2023/06/13 09:48:08;;;;;;;2.20;1.00;;;;;;;27.29;25.83;100030.84;10222773;28;20044;-61
2023/06/13 09:53:10;;;;;;;1.60;1.10;;;;;;;27.50;25.46;100020.34;10219583;28;20062;-63
2023/06/13 09:58:11;;;;;;;3.10;1.10;;;;;;;27.60;25.87;100016.63;10223523;28;20521;-62
2023/06/13 10:03:32;;;;;;;3.38;1.30;;;;;;;27.75;25.77;100018.38;10220544;28;20070;-61
2023/06/13 10:08:34;;;;;;;3.05;1.20;;;;;;;27.93;25.16;100011.22;10221075;28;20043;-63
2023/06/13 10:13:46;;;;;;;5.20;1.48;;;;;;;28.17;25.02;100000.03;10220637;28;20044;-64
2023/06/13 10:18:52;;;;;;;2.03;1.23;;;;;;;28.34;24.73;99993.91;10217877;28;20040;-62
2023/06/13 10:23:55;;;;;;;2.67;1.30;;;;;;;28.44;24.15;99983.50;10221658;28;20050;-61
2023/06/13 10:29:07;;;;;;;3.90;1.40;;;;;;;28.59;24.48;99976.88;10224588;28;20071;-62
2023/06/13 10:34:23;;;;;;;2.83;1.30;;;;;;;28.62;24.26;99984.59;10223105;28;20047;-61
2023/06/13 10:39:36;;;;;;;6.93;1.60;;;;;;;28.68;24.85;99986.13;10219086;28;20043;-62
2023/06/13 10:44:55;;;;;;;2.75;1.40;;;;;;;28.76;23.65;99979.06;10206785;28;20043;-62
2023/06/13 10:49:58;;;;;;;4.15;1.13;;;;;;;28.88;23.06;99978.56;10205360;28;20055;-61
2023/06/13 10:55:01;;;;;;;4.47;1.23;;;;;;;29.16;23.20;99981.34;10188465;28;20051;-61
2023/06/13 11:00:21;;;;;;;2.10;1.10;;;;;;;29.41;23.27;99966.94;10226821;28;20079;-61
2023/06/13 11:05:23;;;;;;;8.50;1.27;;;;;;;29.51;22.54;99970.59;10166860;29;20067;-60
2023/06/13 11:10:44;;;;;;;1.30;1.20;;;;;;;29.62;21.98;99966.44;10223851;28;20143;-62
2023/06/13 11:15:47;;;;;;;1.75;1.05;;;;;;;29.63;21.99;99963.38;10196214;28;20043;-62
2023/06/13 11:20:50;;;;;;;2.97;1.20;;;;;;;29.81;21.96;99942.19;10207728;28;20137;-61
2023/06/13 11:25:53;;;;;;;3.65;1.40;;;;;;;30.02;21.67;99942.50;10207866;28;20044;-62
2023/06/13 11:30:55;;;;;;;2.88;1.10;;;;;;;30.15;21.38;99937.97;10195672;28;20058;-63
2023/06/13 11:35:58;;;;;;;4.60;1.23;;;;;;;30.30;20.94;99942.31;10188513;29;20051;-63
2023/06/13 11:40:59;;;;;;;2.70;1.38;;;;;;;30.38;20.72;99940.75;10207842;28;20519;-63
2023/06/13 11:46:03;;;;;;;5.93;1.45;;;;;;;30.49;20.95;99927.41;10179958;29;20044;-63
2023/06/13 11:51:12;;;;;;;1.88;1.35;;;;;;;30.47;20.42;99925.00;10215538;28;20521;-64
2023/06/13 11:56:15;;;;;;;4.75;1.30;;;;;;;30.55;20.97;99920.59;10194490;29;20047;-63
2023/06/13 12:01:17;;;;;;;5.15;1.35;;;;;;;30.56;20.09;99922.22;10225547;28;20079;-62
2023/06/13 12:06:19;;;;;;;2.70;1.15;;;;;;;30.75;20.41;99924.75;10184637;29;20078;-62
2023/06/13 12:11:22;;;;;;;3.25;1.05;;;;;;;30.86;20.32;99922.50;10219708;28;20051;-64
2023/06/13 12:16:29;;;;;;;2.00;1.23;;;;;;;31.09;20.86;99906.56;10194376;29;20068;-62
2023/06/13 12:21:33;;;;;;;2.47;1.13;;;;;;;31.22;21.94;99911.13;10217191;28;20055;-62
2023/06/13 12:26:40;;;;;;;1.90;1.10;;;;;;;31.30;21.33;99909.50;10204638;28;20048;-63
2023/06/13 12:31:44;;;;;;;3.60;1.10;;;;;;;31.26;22.18;99897.41;10203540;28;20111;-62
2023/06/13 12:36:46;;;;;;;2.03;1.30;;;;;;;31.64;21.80;99897.59;10206882;28;20094;-61
2023/06/13 12:41:52;;;;;;;1.65;1.08;;;;;;;31.88;21.42;99887.94;10180753;29;20056;-66
2023/06/13 12:46:57;;;;;;;1.85;1.08;;;;;;;31.97;19.93;99880.34;10203116;28;20164;-65
2023/06/13 12:51:58;;;;;;;3.50;1.35;;;;;;;31.87;22.31;99881.53;10187996;29;20395;-65
2023/06/13 12:57:02;;;;;;;3.50;1.95;;;;;;;31.58;21.65;99868.34;10213705;28;20513;-65
2023/06/13 13:02:10;;;;;;;1.87;1.20;;;;;;;32.12;20.46;99870.69;10182989;29;20080;-65
2023/06/13 13:07:12;;;;;;;2.83;1.60;;;;;;;32.67;20.32;99874.56;10231192;28;20049;-64
2023/06/13 13:12:15;;;;;;;6.28;1.55;;;;;;;32.78;19.74;99871.06;10206911;28;20054;-65
2023/06/13 13:17:16;;;;;;;3.40;1.80;;;;;;;33.04;19.32;99860.88;10193935;28;20038;-65
2023/06/13 13:22:20;;;;;;;6.55;1.27;;;;;;;33.45;20.10;99845.31;10198371;28;20134;-66
2023/06/13 13:27:23;;;;;;;3.40;1.40;;;;;;;33.62;19.21;99850.75;10200491;28;20044;-65
2023/06/13 13:32:24;;;;;;;3.92;1.38;;;;;;;34.26;18.32;99837.41;10192744;28;20040;-66
2023/06/13 13:37:26;;;;;;;7.93;1.30;;;;;;;35.46;17.55;99832.31;10210347;28;20070;-66
2023/06/13 13:42:27;;;;;;;2.25;1.30;;;;;;;37.59;15.84;99833.38;10191388;28;20058;-66
2023/06/13 13:47:29;;;;;;;4.97;1.35;;;;;;;38.67;15.24;99828.44;10229927;28;20039;-66
2023/06/13 13:52:33;;;;;;;5.00;1.15;;;;;;;39.49;14.51;99833.50;10195717;28;20054;-67
2023/06/13 13:57:35;;;;;;;1.77;0.98;;;;;;;40.12;13.15;99830.91;10187762;28;20063;-64
2023/06/13 14:02:36;;;;;;;3.25;1.42;;;;;;;40.54;12.98;99826.81;10230518;28;20047;-60
2023/06/13 14:07:38;;;;;;;2.38;1.02;;;;;;;39.93;13.06;99824.34;10187679;29;20043;-60
2023/06/13 14:12:39;;;;;;;2.63;0.95;;;;;;;38.80;13.68;99814.13;10218826;28;20055;-61
2023/06/13 14:17:41;;;;;;;4.95;1.20;;;;;;;37.49;14.40;99810.34;10197871;28;20379;-61
2023/06/13 14:22:43;;;;;;;2.22;1.35;;;;;;;36.90;15.01;99803.94;10183495;29;20043;-60
2023/06/13 14:27:44;;;;;;;2.45;1.23;;;;;;;37.84;14.58;99795.38;10182524;29;20044;-61
2023/06/13 14:32:46;;;;;;;4.00;1.20;;;;;;;38.81;13.15;99788.47;10183834;29;20051;-63
2023/06/13 14:37:47;;;;;;;3.78;1.20;;;;;;;39.32;13.54;99789.06;10172812;28;20525;-60
2023/06/13 14:42:49;;;;;;;3.17;1.08;;;;;;;38.91;13.83;99774.94;10180276;29;20095;-61
2023/06/13 14:47:51;;;;;;;1.88;1.17;;;;;;;38.84;13.99;99779.25;10182957;28;20063;-60
2023/06/13 14:52:55;;;;;;;1.88;1.10;;;;;;;38.54;13.90;99778.47;10205738;28;20495;-60
2023/06/13 14:57:59;;;;;;;2.50;1.27;;;;;;;38.61;14.18;99770.94;10190537;28;20079;-61
2023/06/13 15:03:02;;;;;;;1.00;1.00;;;;;;;38.63;13.60;99765.75;10219279;28;20808;-61
2023/06/13 15:08:03;;;;;;;3.17;1.05;;;;;;;38.63;14.45;99762.13;10181371;29;20118;-63
2023/06/13 15:13:05;;;;;;;1.10;1.00;;;;;;;38.74;14.09;99753.84;10178769;29;20059;-62
2023/06/13 15:18:06;;;;;;;1.65;1.08;;;;;;;38.76;14.29;99748.66;10174399;29;20138;-63
2023/06/13 15:23:08;;;;;;;4.32;2.53;;;;;;;39.17;13.81;99743.13;10176740;29;20571;-61
2023/06/13 15:28:09;;;;;;;2.58;1.17;;;;;;;39.33;13.84;99743.69;10178265;29;20047;-62
2023/06/13 15:33:11;;;;;;;3.38;1.00;;;;;;;39.37;13.37;99743.75;10176847;28;20036;-62
2023/06/13 15:38:13;;;;;;;3.25;1.13;;;;;;;39.38;13.24;99740.53;10173447;28;20048;-64
2023/06/13 15:43:14;;;;;;;2.75;0.90;;;;;;;39.16;13.27;99736.72;10180239;29;20463;-64
2023/06/13 15:48:16;;;;;;;2.75;1.13;;;;;;;38.86;13.33;99740.34;10182493;28;20055;-63
2023/06/13 15:53:18;;;;;;;1.70;1.02;;;;;;;38.67;13.05;99738.50;10220565;28;20051;-63
2023/06/13 15:58:20;;;;;;;2.70;1.95;;;;;;;38.42;13.78;99735.31;10186184;28;20071;-66
2023/06/13 16:03:23;;;;;;;3.10;1.58;;;;;;;38.72;13.80;99734.53;10206589;28;20130;-66
2023/06/13 16:08:25;;;;;;;2.80;1.60;;;;;;;38.73;13.49;99740.97;10207056;28;20498;-65
2023/06/13 16:13:27;;;;;;;4.00;0.90;;;;;;;38.94;13.07;99729.97;10215510;28;20279;-65
2023/06/13 16:18:28;;;;;;;1.13;0.70;;;;;;;39.02;13.59;99723.31;10212424;28;20063;-63
2023/06/13 16:23:30;;;;;;;4.30;1.15;;;;;;;39.22;13.33;99726.72;10224869;28;20043;-65
2023/06/13 16:28:38;;;;;;;5.25;1.10;;;;;;;39.36;12.62;99726.06;10222730;28;20437;-64
2023/06/13 16:33:39;;;;;;;3.42;2.33;;;;;;;39.27;12.91;99717.91;10224846;28;20063;-65
2023/06/13 16:38:41;;;;;;;3.22;1.10;;;;;;;39.47;12.96;99714.94;10219738;28;20495;-65
2023/06/13 16:43:42;;;;;;;3.90;1.20;;;;;;;39.56;12.50;99712.59;10228204;28;20494;-65
2023/06/13 16:48:44;;;;;;;2.13;0.80;;;;;;;39.70;12.15;99723.16;10220127;28;20407;-66
2023/06/13 16:53:45;;;;;;;4.00;0.90;;;;;;;39.78;12.42;99724.03;10220491;28;20059;-64
2023/06/13 16:58:47;;;;;;;3.42;0.90;;;;;;;39.93;12.06;99719.34;10209080;28;20051;-64
2023/06/13 17:03:48;;;;;;;2.55;0.73;;;;;;;39.98;11.72;99722.59;10213118;28;20052;-65
2023/06/13 17:08:50;;;;;;;4.50;1.10;;;;;;;39.68;12.13;99717.13;10219496;28;20039;-64
2023/06/13 17:13:51;;;;;;;2.72;0.85;;;;;;;39.56;12.48;99717.44;10224919;28;20067;-64
2023/06/13 17:18:53;;;;;;;1.35;1.00;;;;;;;39.37;12.34;99722.03;10221947;28;20051;-66
2023/06/13 17:23:58;;;;;;;2.30;1.10;;;;;;;39.17;13.30;99710.19;10222887;28;20778;-65
2023/06/13 17:29:00;;;;;;;2.17;1.00;;;;;;;38.83;13.82;99709.41;10225079;28;20143;-63
2023/06/13 17:34:02;;;;;;;1.77;1.00;;;;;;;38.62;13.82;99721.97;10227924;28;20058;-64
2023/06/13 17:39:04;;;;;;;2.53;0.88;;;;;;;38.26;14.21;99720.66;10223447;28;20070;-65
2023/06/13 17:44:06;;;;;;;4.20;1.00;;;;;;;37.70;14.08;99717.38;10222490;28;20509;-65
2023/06/13 17:49:08;;;;;;;3.55;1.27;;;;;;;37.18;14.48;99729.22;10222860;28;20065;-64
2023/06/13 17:54:10;;;;;;;5.10;0.90;;;;;;;36.74;15.18;99730.34;10220335;28;20047;-62
2023/06/13 17:59:11;;;;;;;3.55;0.77;;;;;;;36.47;15.63;99729.34;10230537;28;20122;-65
2023/06/13 18:04:14;;;;;;;2.63;1.02;;;;;;;36.25;15.73;99739.25;10230512;28;20051;-65
2023/06/13 18:09:17;;;;;;;5.95;1.05;;;;;;;35.88;16.35;99720.78;10217671;28;20521;-64
2023/06/13 18:14:18;;;;;;;6.80;1.30;;;;;;;35.67;16.17;99726.66;10223150;28;20462;-63
2023/06/13 18:19:20;;;;;;;2.70;1.30;;;;;;;34.49;17.14;99729.69;10223001;28;20130;-65
2023/06/13 18:24:21;;;;;;;3.00;1.50;;;;;;;33.67;17.56;99727.88;10222456;28;20039;-65
2023/06/13 18:29:23;;;;;;;6.60;1.25;;;;;;;32.90;18.03;99752.53;10221301;28;20043;-64
2023/06/13 18:34:24;;;;;;;1.35;1.20;;;;;;;32.24;18.34;99745.63;10225765;28;20048;-65
2023/06/13 18:39:26;;;;;;;6.07;1.40;;;;;;;31.62;19.12;99742.31;10213162;28;20418;-68
2023/06/13 18:44:30;;;;;;;3.55;1.17;;;;;;;30.96;19.90;99753.66;10227893;28;20043;-67
2023/06/13 18:49:31;;;;;;;6.75;1.35;;;;;;;30.32;20.88;99757.03;10230855;28;20047;-65
2023/06/13 18:54:37;;;;;;;;;;;;;;;29.75;20.58;99746.72;10223373;28;20047;-63
2023/06/13 18:59:38;;;;;;;3.10;1.48;;;;;;;29.34;21.44;99749.72;10225252;28;19931;-65
2023/06/13 19:04:42;;;;;;;2.10;1.30;;;;;;;28.97;22.51;99760.84;10233597;28;20051;-62
2023/06/13 19:09:43;;;;;;;3.13;1.20;;;;;;;28.57;23.36;99768.94;10188778;28;20055;-64
2023/06/13 19:14:45;;;;;;;2.70;1.55;;;;;;;28.17;23.41;99773.38;10225549;28;20054;-63
2023/06/13 19:19:47;;;;;;;4.93;1.55;;;;;;;27.81;23.52;99777.63;10215826;28;20044;-62
2023/06/13 19:24:48;;;;;;;5.75;1.45;;;;;;;27.47;24.11;99778.81;10206436;28;20070;-64
2023/06/13 19:29:50;;;;;;;6.35;1.95;;;;;;;27.24;24.41;99777.00;10215794;28;20051;-63
2023/06/13 19:34:53;;;;;;;4.72;1.83;;;;;;;26.97;24.95;99792.28;10214178;28;20044;-62
2023/06/13 19:39:55;;;;;;;6.15;2.13;;;;;;;26.65;25.09;99795.78;10225850;28;20080;-66
2023/06/13 19:44:56;;;;;;;6.20;1.48;;;;;;;26.43;25.60;99815.63;10207658;28;20054;-64
2023/06/13 19:49:59;;;;;;;2.30;1.73;;;;;;;26.18;25.83;99812.03;10224164;28;20031;-66
2023/06/13 19:55:00;;;;;;;4.47;1.65;;;;;;;25.95;26.13;99821.13;10210486;28;20067;-67
2023/06/13 20:00:05;;;;;;;3.63;1.70;;;;;;;25.74;26.61;99824.06;10225927;28;20044;-65
2023/06/13 20:05:09;;;;;;;4.30;2.10;;;;;;;25.62;26.86;99835.44;10208420;28;20044;-69
2023/06/13 20:10:10;;;;;;;7.38;1.75;;;;;;;25.39;27.76;99845.28;10201443;28;20071;-61
2023/06/13 20:15:12;;;;;;;5.43;1.75;;;;;;;25.17;27.68;99851.19;10220599;28;20130;-60
2023/06/13 20:20:15;;;;;;;3.58;2.25;;;;;;;24.95;28.19;99851.59;10230045;28;20670;-61
2023/06/13 20:25:17;;;;;;;3.10;2.17;;;;;;;24.72;28.55;99853.94;10228286;28;20061;-58
2023/06/13 20:30:19;;;;;;;3.75;2.67;;;;;;;24.43;29.13;99864.72;10222624;28;20058;-60
2023/06/13 20:35:22;;;;;;;5.18;2.65;;;;;;;24.25;29.27;99863.41;10230544;28;20053;-59
2023/06/13 20:40:23;;;;;;;9.43;2.35;;;;;;;24.07;29.52;99866.75;10229935;28;20459;-59
2023/06/13 20:45:26;;;;;;;4.95;1.90;;;;;;;23.95;29.76;99869.78;10221788;28;20490;-60
2023/06/13 20:50:30;;;;;;;4.93;2.65;;;;;;;23.82;29.83;99871.19;10221771;28;20674;-61
2023/06/13 20:55:32;;;;;;;2.58;2.30;;;;;;;23.66;30.13;99873.06;10221981;28;20078;-60
2023/06/13 21:00:34;;;;;;;8.13;2.75;;;;;;;23.53;30.13;99871.69;10218678;28;20040;-60
2023/06/13 21:05:36;;;;;;;3.38;2.53;;;;;;;23.41;30.44;99871.13;10221970;28;20122;-60
2023/06/13 21:10:37;;;;;;;7.30;2.70;;;;;;;23.29;30.58;99873.31;10224953;28;20434;-60
2023/06/13 21:15:45;;;;;;;4.35;2.97;;;;;;;23.15;30.64;99870.28;10225144;28;20043;-59
2023/06/13 21:20:46;;;;;;;6.53;3.17;;;;;;;23.03;30.96;99876.03;10216810;28;20099;-60
2023/06/13 21:25:48;;;;;;;4.68;2.80;;;;;;;22.91;31.27;99878.16;10229023;28;20044;-60
2023/06/13 21:30:49;;;;;;;7.57;3.35;;;;;;;22.80;31.16;99880.03;10224859;28;20058;-59
2023/06/13 21:35:51;;;;;;;3.70;2.95;;;;;;;22.72;30.91;99877.81;10222273;28;20066;-62
2023/06/13 21:40:52;;;;;;;4.30;2.88;;;;;;;22.66;31.11;99887.91;10220612;28;20121;-58
2023/06/13 21:45:56;;;;;;;3.72;2.58;;;;;;;22.63;30.95;99885.72;10222672;28;20043;-60
2023/06/13 21:50:58;;;;;;;5.07;2.72;;;;;;;22.60;31.65;99891.72;10222249;28;20054;-59
2023/06/13 21:55:59;;;;;;;6.22;3.90;;;;;;;22.48;31.47;99886.47;10223224;28;20044;-60
2023/06/13 22:01:01;;;;;;;3.60;2.45;;;;;;;22.44;31.40;99890.84;10221616;28;20046;-62
2023/06/13 22:06:04;;;;;;;3.47;2.53;;;;;;;22.38;31.44;99889.97;10222925;28;20055;-59
2023/06/13 22:11:05;;;;;;;5.90;2.58;;;;;;;22.35;31.62;99890.53;10221448;28;20501;-59
2023/06/13 22:16:06;;;;;;;5.85;3.00;;;;;;;22.27;31.86;99891.00;10223851;28;20040;-59
2023/06/13 22:21:10;;;;;;;3.72;2.33;;;;;;;22.22;31.61;99898.34;10223951;28;20063;-59
2023/06/13 22:26:12;;;;;;;6.13;2.50;;;;;;;22.15;32.20;99899.38;10222486;28;20059;-58
2023/06/13 22:31:13;;;;;;;3.88;2.35;;;;;;;22.07;32.02;99901.81;10225510;28;20040;-59
2023/06/13 22:36:15;;;;;;;7.28;3.05;;;;;;;21.95;32.52;99905.53;10215159;28;20649;-58
2023/06/13 22:41:16;;;;;;;6.28;2.60;;;;;;;21.87;32.70;99910.69;10219982;28;20043;-60
2023/06/13 22:46:18;;;;;;;3.45;2.63;;;;;;;21.76;33.17;99918.81;10220267;28;20047;-60
2023/06/13 22:51:20;;;;;;;5.13;2.80;;;;;;;21.68;33.45;99919.31;10217307;28;20062;-59
2023/06/13 22:56:21;;;;;;;3.65;2.38;;;;;;;21.55;33.34;99931.47;10220648;28;20077;-58
2023/06/13 23:01:23;;;;;;;3.92;2.45;;;;;;;21.48;34.14;99933.59;10219742;28;20047;-59
2023/06/13 23:06:28;;;;;;;6.35;2.45;;;;;;;21.37;34.45;99935.38;10219873;28;20035;-60
2023/06/13 23:11:29;;;;;;;3.65;2.40;;;;;;;21.27;34.34;99935.28;10222394;28;20055;-60
2023/06/13 23:16:30;;;;;;;4.38;2.60;;;;;;;21.13;35.02;99934.84;10213222;28;20044;-58
2023/06/13 23:21:32;;;;;;;4.45;2.85;;;;;;;21.02;34.94;99935.81;10221318;28;20463;-59